Time;durP1;ratioP1;P1;durP2;ratioP2;P2;SDS_P1;SDS_P2;PMS_P1;PMS_P2;Temp;Humidity;BMP_temperature;BMP_pressure;BME280_temperature;BME280_humidity;BME280_pressure;Samples;Min_cycle;Max_cycle;Signal;HPM_P1;HPM_P2
2023/07/02 00:02:21;;;;;;;12.00;7.45;;;;;;;15.93;100.00;100713.97;5080703;28;20022;-70
2023/07/02 00:04:46;;;;;;;16.13;7.35;;;;;;;15.93;100.00;100712.19;5083655;28;20019;-70
2023/07/02 00:07:12;;;;;;;12.38;7.53;;;;;;;15.86;100.00;100705.53;5079401;28;20456;-70
2023/07/02 00:09:37;;;;;;;19.05;7.78;;;;;;;15.84;100.00;100705.59;5075258;28;20039;-71
2023/07/02 00:12:03;;;;;;;14.85;8.05;;;;;;;15.84;100.00;100700.34;5088075;28;20038;-70
2023/07/02 00:14:28;;;;;;;17.38;7.88;;;;;;;15.85;100.00;100704.66;5080614;28;20039;-71
2023/07/02 00:16:53;;;;;;;16.80;7.72;;;;;;;15.80;100.00;100697.94;5087497;28;20031;-70
2023/07/02 00:19:19;;;;;;;16.98;8.05;;;;;;;15.84;100.00;100702.13;5081192;28;20029;-70
2023/07/02 00:21:44;;;;;;;15.27;8.13;;;;;;;15.84;100.00;100704.75;5086244;28;20066;-70
2023/07/02 00:24:09;;;;;;;15.30;8.30;;;;;;;15.80;100.00;100706.66;5082456;28;20158;-70
2023/07/02 00:26:37;;;;;;;15.85;9.00;;;;;;;15.85;100.00;100711.69;5083967;28;20127;-71
2023/07/02 00:29:03;;;;;;;17.88;9.18;;;;;;;15.83;100.00;100703.03;5083958;28;20476;-72
2023/07/02 00:31:29;;;;;;;15.50;9.02;;;;;;;15.82;100.00;100707.44;5081571;28;20043;-71
2023/07/02 00:33:54;;;;;;;18.02;9.80;;;;;;;15.82;100.00;100703.94;5084441;28;20024;-70
2023/07/02 00:36:20;;;;;;;17.40;9.15;;;;;;;15.76;100.00;100685.84;5082847;28;20035;-70
2023/07/02 00:38:47;;;;;;;20.25;9.30;;;;;;;15.78;100.00;100698.00;5083410;28;20103;-70
2023/07/02 00:41:13;;;;;;;21.30;9.65;;;;;;;15.74;100.00;100695.59;5084272;28;20036;-70
2023/07/02 00:43:43;;;;;;;20.88;9.63;;;;;;;15.73;100.00;100689.50;5082724;28;20403;-71
2023/07/02 00:46:13;;;;;;;21.05;10.00;;;;;;;15.74;100.00;100698.22;5083646;28;20043;-70
2023/07/02 00:48:39;;;;;;;20.73;9.52;;;;;;;15.66;100.00;100683.66;5082872;28;20021;-71
2023/07/02 00:51:05;;;;;;;19.83;9.55;;;;;;;15.70;100.00;100701.94;5083304;28;20032;-71
2023/07/02 00:53:32;;;;;;;16.77;9.57;;;;;;;15.70;100.00;100701.94;5083302;28;20400;-70
2023/07/02 00:55:57;;;;;;;19.15;10.55;;;;;;;15.65;100.00;100705.56;5083845;28;20028;-71
2023/07/02 00:58:23;;;;;;;23.45;11.70;;;;;;;15.62;100.00;100713.59;5084442;28;20032;-70
2023/07/02 01:00:48;;;;;;;24.92;11.38;;;;;;;15.57;100.00;100715.59;5082381;28;20036;-71
2023/07/02 01:03:14;;;;;;;22.33;11.73;;;;;;;15.53;100.00;100714.03;5087191;28;20029;-71
2023/07/02 01:05:41;;;;;;;25.30;11.57;;;;;;;15.48;100.00;100718.63;5078196;28;20032;-70
2023/07/02 01:08:07;;;;;;;23.08;11.35;;;;;;;15.41;100.00;100717.22;5083796;28;20020;-70
2023/07/02 01:10:34;;;;;;;25.60;11.40;;;;;;;15.34;100.00;100715.81;5079417;28;20031;-70
2023/07/02 01:13:04;;;;;;;24.92;11.68;;;;;;;15.26;100.00;100720.53;5081114;28;20039;-70
2023/07/02 01:15:30;;;;;;;24.67;11.80;;;;;;;15.20;100.00;100724.28;5083738;28;20032;-70
2023/07/02 01:17:56;;;;;;;25.30;12.95;;;;;;;15.12;100.00;100722.00;5082145;28;20442;-70
2023/07/02 01:20:22;;;;;;;26.23;12.57;;;;;;;15.06;100.00;100719.63;5084626;28;20020;-70
2023/07/02 01:22:51;;;;;;;24.27;12.48;;;;;;;14.98;100.00;100724.38;5088198;28;20028;-70
2023/07/02 01:25:17;;;;;;;24.70;12.82;;;;;;;14.96;100.00;100729.69;5086681;28;20078;-70
2023/07/02 01:27:43;;;;;;;22.17;12.23;;;;;;;14.98;100.00;100738.34;5088711;28;20067;-70
2023/07/02 01:30:09;;;;;;;21.52;12.68;;;;;;;15.04;100.00;100733.75;5084598;28;20040;-70
2023/07/02 01:32:35;;;;;;;25.83;12.45;;;;;;;15.05;100.00;100738.09;5090839;28;20551;-70
2023/07/02 01:35:00;;;;;;;28.17;13.38;;;;;;;15.08;100.00;100737.97;5083678;28;20111;-70
2023/07/02 01:37:26;;;;;;;21.77;13.38;;;;;;;15.09;100.00;100740.50;5091441;28;20032;-70
2023/07/02 01:39:51;;;;;;;21.83;11.98;;;;;;;15.07;100.00;100738.88;5084192;28;20028;-70
2023/07/02 01:42:18;;;;;;;27.77;13.70;;;;;;;15.04;100.00;100745.13;5091129;28;20028;-70
2023/07/02 01:44:45;;;;;;;26.48;14.18;;;;;;;14.99;100.00;100742.69;5083978;28;20036;-71
2023/07/02 01:47:11;;;;;;;23.00;13.60;;;;;;;14.94;100.00;100734.16;5089609;28;20051;-70
2023/07/02 01:49:37;;;;;;;27.98;14.30;;;;;;;14.95;100.00;100742.88;5085444;28;20020;-71
2023/07/02 01:52:03;;;;;;;33.70;15.10;;;;;;;14.91;100.00;100741.28;5088139;28;20035;-70
2023/07/02 01:54:31;;;;;;;28.35;14.30;;;;;;;14.93;100.00;100742.09;5085812;28;20455;-70
2023/07/02 01:56:57;;;;;;;30.92;14.23;;;;;;;14.94;100.00;100743.78;5074670;28;20081;-70
2023/07/02 01:59:23;;;;;;;32.75;15.60;;;;;;;14.95;100.00;100745.50;5064508;28;20054;-71
2023/07/02 02:01:48;;;;;;;29.55;15.82;;;;;;;14.94;100.00;100743.78;5080689;28;20025;-70
2023/07/02 02:04:14;;;;;;;31.27;15.40;;;;;;;14.89;100.00;100740.53;5087159;28;20368;-70
2023/07/02 02:06:40;;;;;;;29.13;16.10;;;;;;;14.84;100.00;100745.09;5086414;28;20020;-70
2023/07/02 02:09:06;;;;;;;30.48;16.13;;;;;;;14.83;100.00;100749.50;5082092;28;20069;-70
2023/07/02 02:11:37;;;;;;;27.33;15.65;;;;;;;14.82;100.00;100746.97;5086448;28;20490;-70
2023/07/02 02:14:02;;;;;;;28.40;16.27;;;;;;;14.83;100.00;100752.13;5082798;28;20038;-70
2023/07/02 02:16:28;;;;;;;32.38;17.10;;;;;;;14.79;100.00;100747.09;5077843;28;20028;-70
2023/07/02 02:18:53;;;;;;;29.73;15.75;;;;;;;14.83;100.00;100753.91;5086832;28;20028;-70
2023/07/02 02:21:19;;;;;;;28.63;15.90;;;;;;;14.82;100.00;100749.59;5083929;28;20059;-71
2023/07/02 02:23:45;;;;;;;30.42;16.30;;;;;;;14.81;100.00;100746.09;5085464;28;20085;-70
2023/07/02 02:26:10;;;;;;;32.17;17.55;;;;;;;14.71;100.00;100745.66;5083868;28;20036;-70
2023/07/02 02:28:36;;;;;;;27.17;15.57;;;;;;;14.65;100.00;100758.13;5086293;28;20103;-71
2023/07/02 02:31:02;;;;;;;32.15;16.65;;;;;;;14.55;100.00;100755.06;5081899;28;20040;-70
2023/07/02 02:33:27;;;;;;;35.17;17.70;;;;;;;14.45;100.00;100751.94;5084037;28;20071;-70
2023/07/02 02:35:52;;;;;;;32.70;16.90;;;;;;;14.42;100.00;100765.19;5086502;28;20039;-70
2023/07/02 02:38:18;;;;;;;31.25;16.30;;;;;;;14.34;100.00;100748.88;5083787;28;20085;-70
2023/07/02 02:40:43;;;;;;;38.00;16.90;;;;;;;14.28;100.00;100763.09;5086255;28;20023;-70
2023/07/02 02:43:09;;;;;;;30.90;17.08;;;;;;;14.27;100.00;100760.53;5086040;28;20067;-70
2023/07/02 02:45:34;;;;;;;31.55;17.77;;;;;;;14.24;100.00;100768.53;5083676;28;20487;-70
2023/07/02 02:47:59;;;;;;;28.38;17.23;;;;;;;14.24;100.00;100764.13;5088168;28;20040;-70
2023/07/02 02:50:24;;;;;;;29.33;16.30;;;;;;;14.20;100.00;100767.81;5082821;28;20381;-70
2023/07/02 02:52:50;;;;;;;29.55;16.92;;;;;;;14.13;100.00;100768.97;5089220;28;20395;-71
2023/07/02 02:55:15;;;;;;;33.45;17.35;;;;;;;14.09;100.00;100774.38;5082732;28;20085;-70
2023/07/02 02:57:42;;;;;;;31.55;16.95;;;;;;;14.00;100.00;100773.81;5089327;28;20074;-70
2023/07/02 03:00:09;;;;;;;29.65;17.00;;;;;;;13.94;100.00;100775.84;5082918;28;20035;-70
2023/07/02 03:02:35;;;;;;;29.95;17.10;;;;;;;13.91;100.00;100778.56;5089638;28;20050;-70
2023/07/02 03:05:02;;;;;;;34.95;17.58;;;;;;;13.96;100.00;100780.09;5082157;28;20090;-70
2023/07/02 03:07:31;;;;;;;31.08;16.88;;;;;;;13.94;100.00;100787.16;5077331;28;20029;-70
2023/07/02 03:09:57;;;;;;;35.70;17.85;;;;;;;13.88;100.00;100789.16;5086937;28;20028;-70
2023/07/02 03:12:22;;;;;;;31.75;17.58;;;;;;;13.85;100.00;100797.13;5081583;28;20029;-70
2023/07/02 03:14:51;;;;;;;34.40;17.25;;;;;;;13.80;100.00;100795.56;5088394;28;20032;-70
2023/07/02 03:17:17;;;;;;;33.83;17.38;;;;;;;13.76;100.00;100801.81;5079179;28;20036;-70
2023/07/02 03:19:42;;;;;;;30.73;17.40;;;;;;;13.72;100.00;100794.97;5085626;28;20024;-70
2023/07/02 03:22:07;;;;;;;36.95;18.80;;;;;;;13.67;100.00;100790.81;5083777;28;20043;-70
2023/07/02 03:24:32;;;;;;;31.55;18.27;;;;;;;13.71;100.00;100802.91;5084360;28;20031;-70
2023/07/02 03:26:58;;;;;;;32.95;17.08;;;;;;;13.74;100.00;100811.50;5084609;28;20028;-70
2023/07/02 03:29:23;;;;;;;32.85;17.88;;;;;;;13.78;100.00;100815.72;5083033;28;20036;-71
2023/07/02 03:31:48;;;;;;;34.15;17.10;;;;;;;13.73;100.00;100807.19;5085259;28;20090;-70
2023/07/02 03:34:14;;;;;;;39.33;17.58;;;;;;;13.77;100.00;100814.00;5082534;28;20474;-70
2023/07/02 03:36:39;;;;;;;34.42;18.10;;;;;;;13.72;100.00;100815.94;5084792;28;20027;-70
2023/07/02 03:39:04;;;;;;;36.03;18.65;;;;;;;13.66;100.00;100818.78;5084539;28;20020;-71
2023/07/02 03:41:30;;;;;;;37.15;17.92;;;;;;;13.65;100.00;100829.31;5083018;28;20029;-71
2023/07/02 03:43:56;;;;;;;37.60;18.92;;;;;;;13.64;100.00;100833.72;5084965;28;20062;-70
2023/07/02 03:46:24;;;;;;;32.00;17.23;;;;;;;13.66;100.00;100825.78;5083545;28;20020;-70
2023/07/02 03:48:49;;;;;;;27.52;16.52;;;;;;;13.62;100.00;100824.19;5084278;28;20474;-70
2023/07/02 03:51:16;;;;;;;29.30;16.30;;;;;;;13.59;100.00;100826.00;5085122;28;20055;-70
2023/07/02 03:53:41;;;;;;;30.08;16.63;;;;;;;13.59;100.00;100826.00;5082949;28;20468;-70
2023/07/02 03:56:07;;;;;;;27.23;15.80;;;;;;;13.61;100.00;100836.44;5086395;28;20031;-70
2023/07/02 03:58:33;;;;;;;31.63;17.90;;;;;;;13.65;100.00;100838.03;5081209;28;20070;-70
2023/07/02 04:00:58;;;;;;;30.40;16.58;;;;;;;13.65;100.00;100832.78;5072213;28;20139;-70
2023/07/02 04:03:23;;;;;;;27.60;15.55;;;;;;;13.64;100.00;100838.94;5081417;28;20024;-70
2023/07/02 04:05:49;;;;;;;32.53;15.82;;;;;;;13.56;100.00;100835.75;5079843;28;20017;-70
2023/07/02 04:08:15;;;;;;;29.33;15.35;;;;;;;13.54;100.00;100842.81;5083682;28;20468;-70
2023/07/02 04:10:41;;;;;;;28.02;15.18;;;;;;;13.57;100.00;100842.72;5081317;28;20457;-70
2023/07/02 04:13:06;;;;;;;31.33;16.05;;;;;;;13.57;100.00;100838.31;5084085;28;20029;-70
2023/07/02 04:15:32;;;;;;;29.48;15.25;;;;;;;13.61;100.00;100839.06;5083991;28;20468;-71
2023/07/02 04:17:57;;;;;;;29.77;15.07;;;;;;;13.58;100.00;100850.50;5081901;28;20065;-70
2023/07/02 04:20:22;;;;;;;29.15;14.80;;;;;;;13.57;100.00;100847.94;5086187;28;20024;-71
2023/07/02 04:22:48;;;;;;;27.85;15.07;;;;;;;13.52;100.00;100842.84;5072766;28;20032;-70
2023/07/02 04:25:17;;;;;;;29.75;14.20;;;;;;;13.53;100.00;100852.41;5087738;28;20027;-70
2023/07/02 04:27:44;;;;;;;30.13;14.32;;;;;;;13.55;100.00;100849.75;5080466;28;20036;-70
2023/07/02 04:30:10;;;;;;;27.08;13.57;;;;;;;13.61;100.00;100848.69;5086786;28;20491;-70
2023/07/02 04:32:36;;;;;;;27.65;13.48;;;;;;;13.63;100.00;100842.47;5080480;28;20480;-71
2023/07/02 04:35:02;;;;;;;27.48;14.10;;;;;;;13.71;100.00;100853.53;5086898;28;20499;-70
2023/07/02 04:37:29;;;;;;;30.70;13.75;;;;;;;13.73;100.00;100849.09;5080450;28;20131;-71
2023/07/02 04:39:54;;;;;;;28.60;13.57;;;;;;;13.78;100.00;100855.00;5085422;28;20432;-71
2023/07/02 04:42:20;;;;;;;20.75;11.93;;;;;;;13.84;100.00;100855.72;5083478;28;20547;-70
2023/07/02 04:44:45;;;;;;;26.25;13.35;;;;;;;13.84;100.00;100853.94;5082265;28;20028;-71
2023/07/02 04:47:10;;;;;;;27.08;12.48;;;;;;;13.85;100.00;100854.78;5084220;28;20032;-70
2023/07/02 04:49:36;;;;;;;28.63;14.18;;;;;;;13.87;100.00;100853.84;5082244;28;20035;-71
2023/07/02 04:52:04;;;;;;;29.85;13.40;;;;;;;13.93;100.00;100861.47;5083372;28;20118;-70
2023/07/02 04:54:29;;;;;;;23.80;12.77;;;;;;;14.03;100.00;100857.59;5081729;28;20534;-70
2023/07/02 04:56:55;;;;;;;28.60;13.43;;;;;;;14.13;100.00;100868.59;5084057;28;20103;-70
2023/07/02 04:59:21;;;;;;;31.52;13.43;;;;;;;14.29;100.00;100867.09;5083496;28;20035;-70
2023/07/02 05:01:46;;;;;;;23.55;12.05;;;;;;;14.41;100.00;100876.22;5082472;28;20032;-70
2023/07/02 05:04:12;;;;;;;22.63;12.27;;;;;;;14.49;100.00;100868.94;5083233;28;20471;-70
2023/07/02 05:06:37;;;;;;;25.80;12.65;;;;;;;14.56;100.00;100872.19;5081040;28;20463;-70
2023/07/02 05:09:03;;;;;;;23.48;12.68;;;;;;;14.63;100.00;100881.53;5080850;28;20574;-70
2023/07/02 05:11:28;;;;;;;25.83;12.27;;;;;;;14.66;100.00;100877.94;5082813;28;20086;-70
2023/07/02 05:13:53;;;;;;;27.40;12.43;;;;;;;14.66;100.00;100878.78;5081325;28;20025;-70
2023/07/02 05:16:19;;;;;;;22.88;11.82;;;;;;;14.62;100.00;100874.59;5084101;28;20032;-70
2023/07/02 05:18:44;;;;;;;21.42;10.15;;;;;;;14.60;100.00;100878.19;5081874;28;20020;-70
2023/07/02 05:21:11;;;;;;;21.35;9.98;;;;;;;14.54;100.00;100889.75;5082795;28;20115;-70
2023/07/02 05:23:36;;;;;;;26.85;10.63;;;;;;;14.51;100.00;100895.13;5083556;28;20024;-70
2023/07/02 05:26:02;;;;;;;22.10;10.00;;;;;;;14.51;100.00;100895.13;5080939;28;20457;-70
2023/07/02 05:28:27;;;;;;;21.75;9.98;;;;;;;14.60;100.00;100896.53;5083535;28;20035;-70
2023/07/02 05:30:52;;;;;;;19.75;9.73;;;;;;;14.70;100.00;100898.75;5083152;28;20049;-70
2023/07/02 05:33:22;;;;;;;24.48;10.30;;;;;;;14.78;100.00;100901.06;5080791;28;20484;-70
2023/07/02 05:35:48;;;;;;;22.77;9.10;;;;;;;14.86;100.00;100906.84;5084807;28;20561;-70
2023/07/02 05:38:13;;;;;;;20.48;9.77;;;;;;;14.94;100.00;100914.41;5080687;28;20029;-70
2023/07/02 05:40:39;;;;;;;18.55;9.50;;;;;;;14.98;100.00;100909.00;5086033;28;20473;-70
2023/07/02 05:43:04;;;;;;;25.00;11.00;;;;;;;15.13;100.00;100914.53;5080289;28;20016;-70
2023/07/02 05:45:29;;;;;;;21.70;9.30;;;;;;;15.26;100.00;100914.88;5087011;28;20082;-71
2023/07/02 05:47:55;;;;;;;21.30;8.68;;;;;;;15.33;100.00;100906.66;5079142;28;20036;-70
2023/07/02 05:50:20;;;;;;;19.25;9.95;;;;;;;15.47;100.00;100911.34;5087373;28;20024;-70
2023/07/02 05:52:45;;;;;;;19.55;8.48;;;;;;;15.60;100.00;100924.81;5080051;28;20492;-70
2023/07/02 05:55:11;;;;;;;20.90;9.38;;;;;;;15.71;100.00;100924.38;5084777;28;20047;-70
2023/07/02 05:57:38;;;;;;;20.08;9.32;;;;;;;15.82;100.00;100930.88;5082296;28;20020;-70
2023/07/02 06:00:07;;;;;;;17.60;9.20;;;;;;;15.89;100.00;100910.41;5083689;28;20116;-70
2023/07/02 06:02:32;;;;;;;18.65;8.20;;;;;;;15.94;100.00;100924.22;5082504;28;20111;-70
2023/07/02 06:04:58;;;;;;;18.80;8.43;;;;;;;15.99;100.00;100932.78;5082540;28;20111;-70
2023/07/02 06:07:26;;;;;;;17.35;7.97;;;;;;;16.00;100.00;100929.22;5077837;28;20033;-71
2023/07/02 06:09:51;;;;;;;22.52;8.30;;;;;;;16.11;98.94;100933.97;5074830;28;20025;-70
2023/07/02 06:12:16;;;;;;;18.17;8.52;;;;;;;16.11;98.99;100926.94;5085916;28;20067;-70
2023/07/02 06:14:42;;;;;;;17.52;8.82;;;;;;;16.07;98.66;100949.03;5088348;28;20028;-70
2023/07/02 06:17:08;;;;;;;22.05;8.73;;;;;;;16.08;97.52;100944.63;5084241;28;20115;-70
2023/07/02 06:19:33;;;;;;;17.83;8.02;;;;;;;16.10;98.75;100941.03;5087388;28;20028;-70
2023/07/02 06:21:59;;;;;;;19.73;8.15;;;;;;;16.12;93.22;100941.81;5085648;28;20066;-70
2023/07/02 06:24:24;;;;;;;16.63;7.40;;;;;;;16.14;93.30;100945.22;5085090;28;20027;-71
2023/07/02 06:26:50;;;;;;;18.83;7.53;;;;;;;16.15;88.85;100939.06;5086716;28;20038;-70
2023/07/02 06:29:15;;;;;;;22.83;8.02;;;;;;;16.22;97.01;100938.75;5083426;28;20476;-71
2023/07/02 06:31:40;;;;;;;14.02;7.18;;;;;;;16.41;90.48;100946.66;5085955;28;20043;-70
2023/07/02 06:34:07;;;;;;;18.70;7.65;;;;;;;16.50;92.87;100943.59;5085230;28;20028;-70
2023/07/02 06:36:32;;;;;;;17.88;7.45;;;;;;;16.62;92.80;100948.31;5085274;28;20024;-70
2023/07/02 06:38:58;;;;;;;19.77;7.88;;;;;;;16.81;94.13;100954.44;5086463;28;20032;-70
2023/07/02 06:41:23;;;;;;;20.48;7.97;;;;;;;16.93;93.16;100954.78;5084483;28;20085;-70
2023/07/02 06:43:48;;;;;;;16.92;8.23;;;;;;;16.98;92.45;100952.78;5085498;28;20063;-70
2023/07/02 06:46:14;;;;;;;16.98;7.60;;;;;;;16.98;90.74;100961.53;5085614;28;20071;-70
2023/07/02 06:48:39;;;;;;;18.35;7.10;;;;;;;17.00;93.86;100966.72;5085316;28;20056;-70
2023/07/02 06:51:04;;;;;;;14.80;7.20;;;;;;;17.11;92.51;100967.06;5087134;28;20103;-70
2023/07/02 06:53:30;;;;;;;19.85;7.82;;;;;;;17.21;90.08;100962.19;5082966;28;20024;-71
2023/07/02 06:55:55;;;;;;;15.82;7.38;;;;;;;17.38;88.50;100964.00;5090273;28;20028;-70
2023/07/02 06:58:20;;;;;;;17.17;7.18;;;;;;;17.58;91.08;100970.91;5082285;28;20090;-71
2023/07/02 07:00:46;;;;;;;14.63;6.72;;;;;;;17.64;85.52;100975.88;5090135;28;20475;-70
2023/07/02 07:03:11;;;;;;;13.27;7.13;;;;;;;17.75;86.75;100977.00;5082768;28;20043;-70
2023/07/02 07:05:36;;;;;;;15.68;6.80;;;;;;;17.72;86.31;100979.81;5080074;28;20102;-71
2023/07/02 07:08:02;;;;;;;17.60;7.05;;;;;;;17.72;83.63;100978.94;5085843;28;20047;-70
2023/07/02 07:10:28;;;;;;;14.48;6.50;;;;;;;17.75;82.57;100984.91;5074134;28;20020;-70
2023/07/02 07:12:53;;;;;;;14.77;6.93;;;;;;;17.77;84.65;100991.00;5082857;28;20086;-71
2023/07/02 07:15:18;;;;;;;15.88;6.97;;;;;;;17.76;82.72;100996.34;5087661;28;20056;-70
2023/07/02 07:17:44;;;;;;;15.75;6.85;;;;;;;17.86;85.74;100994.13;5080701;28;20119;-71
2023/07/02 07:20:09;;;;;;;14.13;6.75;;;;;;;17.93;82.65;100995.50;5088938;28;20036;-70
2023/07/02 07:22:35;;;;;;;13.65;6.22;;;;;;;17.95;76.01;100999.78;5082105;28;20048;-70
2023/07/02 07:25:00;;;;;;;13.55;6.50;;;;;;;18.02;75.30;101001.16;5088501;28;20028;-70
2023/07/02 07:27:25;;;;;;;15.88;6.50;;;;;;;18.15;78.67;100995.25;5082109;28;20031;-70
2023/07/02 07:29:51;;;;;;;14.82;5.90;;;;;;;18.19;77.09;101007.34;5091600;28;20052;-70
2023/07/02 07:32:16;;;;;;;17.33;7.15;;;;;;;18.21;76.66;101005.44;5082604;28;20043;-70
2023/07/02 07:34:42;;;;;;;13.38;6.20;;;;;;;18.23;75.64;100995.69;5085399;28;20325;-70
2023/07/02 07:37:07;;;;;;;15.27;6.57;;;;;;;18.21;74.71;101008.09;5085301;28;20055;-70
2023/07/02 07:39:33;;;;;;;13.60;6.15;;;;;;;18.22;68.62;101012.47;5078413;28;20022;-70
2023/07/02 07:41:58;;;;;;;14.55;6.63;;;;;;;18.28;72.66;101017.41;5083468;28;20387;-70
2023/07/02 07:44:28;;;;;;;12.77;5.90;;;;;;;18.29;74.82;101026.19;5078674;28;20121;-70
2023/07/02 07:46:55;;;;;;;12.00;6.13;;;;;;;18.27;70.20;101018.31;5088287;28;20442;-70
2023/07/02 07:49:21;;;;;;;13.18;6.05;;;;;;;18.43;69.64;101034.22;5084429;28;20032;-70
2023/07/02 07:51:46;;;;;;;15.85;6.07;;;;;;;18.51;75.81;101039.06;5084623;28;20035;-70
2023/07/02 07:54:11;;;;;;;12.98;6.70;;;;;;;18.60;71.33;101026.22;5081005;28;20430;-71
2023/07/02 07:56:37;;;;;;;11.20;5.55;;;;;;;18.74;71.78;101017.63;5073468;28;20060;-71
2023/07/02 07:59:02;;;;;;;11.60;5.72;;;;;;;18.89;68.91;101031.75;5081314;28;20095;-71
2023/07/02 08:01:28;;;;;;;11.70;5.40;;;;;;;19.02;66.46;101026.63;5084035;28;20436;-71
2023/07/02 08:03:53;;;;;;;10.43;5.53;;;;;;;19.16;71.80;101024.94;5085547;28;20028;-71
2023/07/02 08:06:18;;;;;;;14.65;5.45;;;;;;;19.38;66.85;101027.19;5081748;28;20106;-70
2023/07/02 08:08:44;;;;;;;9.50;5.07;;;;;;;19.61;65.14;101019.72;5081494;28;20031;-71
2023/07/02 08:11:09;;;;;;;11.32;5.55;;;;;;;19.67;65.74;101029.97;5074299;28;20467;-72
2023/07/02 08:13:34;;;;;;;11.70;5.22;;;;;;;19.67;60.38;101022.06;5071684;28;20031;-71
2023/07/02 08:16:00;;;;;;;12.95;5.80;;;;;;;19.74;64.15;101030.47;5076375;28;20121;-71
2023/07/02 08:18:25;;;;;;;12.05;5.70;;;;;;;19.80;57.97;101030.97;5077041;28;20020;-71
2023/07/02 08:20:50;;;;;;;13.35;6.53;;;;;;;19.74;61.04;101035.75;5081037;28;20400;-70
2023/07/02 08:23:16;;;;;;;12.98;5.55;;;;;;;19.54;56.83;101035.09;5081440;28;20161;-71
2023/07/02 08:25:41;;;;;;;12.35;5.57;;;;;;;19.40;58.12;101053.56;5080876;28;21043;-71
2023/07/02 08:28:06;;;;;;;11.07;5.72;;;;;;;19.39;52.93;101047.44;5081287;28;20075;-71
2023/07/02 08:30:32;;;;;;;12.15;5.70;;;;;;;19.59;59.93;101048.91;5086014;28;20149;-71
2023/07/02 08:32:57;;;;;;;8.02;4.80;;;;;;;19.73;58.13;101055.22;5081320;28;20086;-71
2023/07/02 08:35:22;;;;;;;13.88;6.00;;;;;;;19.76;58.74;101050.59;5077916;28;20850;-72
2023/07/02 08:37:48;;;;;;;10.32;5.20;;;;;;;19.67;54.15;101055.59;5080032;28;20035;-72
2023/07/02 08:40:20;;;;;;;9.95;5.68;;;;;;;19.58;56.94;101064.84;5085585;28;20095;-72
2023/07/02 08:42:49;;;;;;;10.95;5.47;;;;;;;19.74;55.87;101049.84;5083222;28;20024;-71
2023/07/02 08:45:18;;;;;;;12.32;5.18;;;;;;;19.85;53.21;101068.59;5080989;28;20020;-71
2023/07/02 08:47:45;;;;;;;14.10;5.97;;;;;;;19.94;57.60;101063.69;5074490;28;20028;-71
2023/07/02 08:50:14;;;;;;;13.48;5.85;;;;;;;20.08;57.40;101063.75;5086589;28;20028;-71
2023/07/02 08:52:39;;;;;;;13.50;5.75;;;;;;;20.20;57.42;101062.97;5080177;28;20111;-71
2023/07/02 08:55:05;;;;;;;9.57;4.78;;;;;;;20.22;55.72;101062.91;5085703;28;20478;-71
2023/07/02 08:57:30;;;;;;;15.40;6.05;;;;;;;20.21;53.30;101063.81;5074997;28;20468;-72
2023/07/02 08:59:56;;;;;;;11.13;4.68;;;;;;;20.39;57.39;101061.88;5073010;28;20028;-71
2023/07/02 09:02:33;;;;;;;11.68;5.57;;;;;;;20.60;58.83;101062.38;5083303;28;20039;-71
2023/07/02 09:05:03;;;;;;;12.45;5.47;;;;;;;20.58;54.48;101057.19;5074779;28;20655;-71
2023/07/02 09:07:28;;;;;;;11.65;5.50;;;;;;;20.68;54.71;101060.13;5070760;28;20028;-71
2023/07/02 09:09:53;;;;;;;12.65;6.20;;;;;;;20.95;52.99;101061.03;5068552;28;20418;-70
2023/07/02 09:12:29;;;;;;;11.93;5.57;;;;;;;21.13;52.99;101055.50;5073029;28;20027;-70
2023/07/02 09:15:06;;;;;;;11.05;5.30;;;;;;;21.17;49.44;101063.16;5078982;28;20491;-70
2023/07/02 09:17:36;;;;;;;9.93;5.00;;;;;;;21.09;46.40;101060.16;5080565;28;20384;-70
2023/07/02 09:20:06;;;;;;;11.35;5.32;;;;;;;20.99;50.49;101057.25;5087408;28;20163;-70
2023/07/02 09:22:32;;;;;;;8.63;5.10;;;;;;;20.86;46.13;101048.34;5075600;28;20055;-70
2023/07/02 09:24:58;;;;;;;11.32;5.18;;;;;;;20.75;46.55;101054.34;5085921;28;20060;-70
2023/07/02 09:27:37;;;;;;;10.85;5.30;;;;;;;20.73;50.26;101066.84;5082617;28;20021;-70
2023/07/02 09:30:07;;;;;;;14.10;6.10;;;;;;;20.51;53.47;101067.31;5087269;28;20088;-70
2023/07/02 09:32:32;;;;;;;12.65;5.38;;;;;;;20.65;49.07;101055.00;5077906;28;20036;-70
2023/07/02 09:34:58;;;;;;;10.55;5.53;;;;;;;20.76;53.95;101050.75;5085955;28;20464;-70
2023/07/02 09:37:24;;;;;;;12.63;6.15;;;;;;;20.91;47.52;101051.56;5085494;28;20032;-70
2023/07/02 09:39:54;;;;;;;11.40;5.95;;;;;;;20.88;51.18;101057.06;5084332;28;20028;-70
2023/07/02 09:42:21;;;;;;;12.52;5.70;;;;;;;20.81;49.60;101061.91;5085680;28;20468;-70
2023/07/02 09:44:46;;;;;;;9.95;5.38;;;;;;;20.76;49.07;101065.78;5086660;28;20027;-71
2023/07/02 09:47:14;;;;;;;13.88;5.65;;;;;;;20.75;50.12;101053.47;5083120;28;20383;-71
2023/07/02 09:49:45;;;;;;;11.65;5.57;;;;;;;20.69;50.55;101057.34;5086269;28;20024;-70
2023/07/02 09:52:11;;;;;;;15.75;6.30;;;;;;;21.05;54.47;101061.28;5087406;28;20031;-70
2023/07/02 09:54:37;;;;;;;15.00;6.38;;;;;;;21.58;52.92;101057.00;5085410;28;20020;-71
2023/07/02 09:57:04;;;;;;;14.68;5.30;;;;;;;21.74;50.87;101073.59;5091792;28;20099;-71
2023/07/02 09:59:30;;;;;;;12.13;5.97;;;;;;;21.75;49.80;101061.19;5086038;28;20103;-71
2023/07/02 10:01:56;;;;;;;13.00;6.18;;;;;;;21.62;49.85;101070.91;5075482;28;20118;-71
2023/07/02 10:04:23;;;;;;;13.73;6.25;;;;;;;21.56;49.81;101069.50;5087378;28;20050;-71
2023/07/02 10:06:52;;;;;;;13.00;6.00;;;;;;;22.03;50.96;101077.88;5083343;28;20482;-70
2023/07/02 10:09:19;;;;;;;14.27;6.30;;;;;;;22.23;48.24;101073.91;5081807;28;20017;-71
2023/07/02 10:11:44;;;;;;;12.50;6.20;;;;;;;22.15;49.43;101074.41;5084790;28;20039;-71
2023/07/02 10:14:10;;;;;;;9.98;5.95;;;;;;;22.01;48.25;101079.78;5084789;28;20028;-70
2023/07/02 10:16:53;;;;;;;11.82;5.78;;;;;;;21.84;51.15;101078.28;5086601;28;20020;-70
2023/07/02 10:19:18;;;;;;;15.53;5.83;;;;;;;21.50;50.84;101091.97;5085975;28;20115;-70
2023/07/02 10:21:49;;;;;;;13.50;5.97;;;;;;;21.40;51.14;101074.13;5089170;28;20416;-71
2023/07/02 10:24:17;;;;;;;14.30;5.88;;;;;;;21.56;48.52;101090.72;5082343;28;20052;-70
2023/07/02 10:26:56;;;;;;;17.17;7.30;;;;;;;21.74;51.62;101088.66;5082824;28;20048;-70
2023/07/02 10:29:26;;;;;;;14.02;6.10;;;;;;;21.67;50.75;101082.91;5089887;28;20158;-70
2023/07/02 10:31:54;;;;;;;13.48;5.72;;;;;;;21.83;48.46;101089.84;5080597;28;20144;-70
2023/07/02 10:34:33;;;;;;;12.07;6.13;;;;;;;22.17;51.01;101076.03;5090161;28;20028;-71
2023/07/02 10:37:03;;;;;;;13.45;6.22;;;;;;;22.57;48.66;101088.38;5083066;28;20025;-73
2023/07/02 10:39:30;;;;;;;16.55;6.57;;;;;;;22.70;49.43;101085.69;5089603;28;20036;-73
2023/07/02 10:42:09;;;;;;;16.10;6.03;;;;;;;22.74;47.47;101090.69;5082500;28;20372;-73
2023/07/02 10:44:46;;;;;;;16.75;6.47;;;;;;;22.89;46.53;101091.41;5088787;28;20028;-73
2023/07/02 10:47:11;;;;;;;15.90;6.65;;;;;;;22.63;44.69;101078.16;5083623;28;20093;-73
2023/07/02 10:49:36;;;;;;;18.63;7.13;;;;;;;22.47;47.18;101101.44;5089013;28;20056;-72
2023/07/02 10:52:07;;;;;;;15.30;6.57;;;;;;;22.18;44.63;101098.13;5082127;28;20032;-71
2023/07/02 10:54:46;;;;;;;14.32;6.88;;;;;;;22.18;49.10;101098.97;5089350;28;20024;-70
2023/07/02 10:57:16;;;;;;;20.15;7.45;;;;;;;22.20;47.39;101085.56;5081991;28;20098;-70
2023/07/02 10:59:41;;;;;;;17.08;7.70;;;;;;;22.33;47.64;101091.75;5089896;28;20043;-70
2023/07/02 11:02:09;;;;;;;24.85;7.95;;;;;;;22.49;49.08;101091.53;5078812;28;20464;-70
2023/07/02 11:04:35;;;;;;;17.88;8.35;;;;;;;22.54;46.82;101091.25;5089399;28;20028;-70
2023/07/02 11:07:01;;;;;;;13.85;7.10;;;;;;;22.65;45.48;101078.88;5074705;28;20052;-71